Time;durP1;ratioP1;P1;durP2;ratioP2;P2;SDS_P1;SDS_P2;PMS_P1;PMS_P2;Temp;Humidity;BMP_temperature;BMP_pressure;BME280_temperature;BME280_humidity;BME280_pressure;Samples;Min_cycle;Max_cycle;Signal;HPM_P1;HPM_P2
2022/10/28 00:03:59;;;;;;;12.98;3.95;;;;;;;;;;8335775;28;20086;-62
2022/10/28 00:08:00;;;;;;;9.85;3.30;;;;;;;;;;8336289;28;20012;-61
2022/10/28 00:12:00;;;;;;;7.30;3.83;;;;;;;;;;8336431;28;20025;-61
2022/10/28 00:16:20;;;;;;;9.52;4.05;;;;;;;;;;8334056;28;20041;-61
2022/10/28 00:20:20;;;;;;;11.20;4.32;;;;;;;;;;8333884;28;20477;-61
2022/10/28 00:24:20;;;;;;;9.50;4.00;;;;;;;;;;8327402;28;20052;-62
2022/10/28 00:28:20;;;;;;;9.50;4.00;;;;;;;;;;8328050;28;20460;-61
2022/10/28 00:32:21;;;;;;;9.77;3.67;;;;;;;;;;8327238;28;20045;-61
2022/10/28 00:36:21;;;;;;;10.35;4.10;;;;;;;;;;8327083;28;20680;-61
2022/10/28 00:40:21;;;;;;;5.82;3.55;;;;;;;;;;8324849;28;20023;-61
2022/10/28 00:44:40;;;;;;;8.90;3.97;;;;;;;;;;8324743;28;20072;-61
2022/10/28 00:48:41;;;;;;;13.18;3.90;;;;;;;;;;8327127;28;20559;-61
2022/10/28 00:52:44;;;;;;;7.90;3.40;;;;;;;;;;8325437;28;20070;-61
2022/10/28 00:56:46;;;;;;;12.20;3.05;;;;;;;;;;8325220;28;20118;-61
2022/10/28 01:00:47;;;;;;;8.23;2.70;;;;;;;;;;8325485;28;20120;-61
2022/10/28 01:04:47;;;;;;;8.75;2.80;;;;;;;;;;8326522;28;20083;-61
2022/10/28 01:08:47;;;;;;;10.97;2.60;;;;;;;;;;8326574;28;20104;-61
2022/10/28 01:12:57;;;;;;;9.18;2.70;;;;;;;;;;8327149;28;20859;-62
2022/10/28 01:17:10;;;;;;;10.98;2.45;;;;;;;;;;8325105;28;20096;-61
2022/10/28 01:21:30;;;;;;;9.10;2.70;;;;;;;;;;8325936;28;20017;-62
2022/10/28 01:25:59;;;;;;;9.95;2.95;;;;;;;;;;8327581;28;20111;-62
2022/10/28 01:30:02;;;;;;;5.63;2.20;;;;;;;;;;8309203;28;20230;-61
2022/10/28 01:34:08;;;;;;;9.85;2.50;;;;;;;;;;8329809;28;20592;-62
2022/10/28 01:38:14;;;;;;;12.75;2.28;;;;;;;;;;8328491;28;20019;-61
2022/10/28 01:42:23;;;;;;;11.27;2.38;;;;;;;;;;8329497;28;20103;-61
2022/10/28 01:46:32;;;;;;;9.65;2.38;;;;;;;;;;8329821;28;20580;-63
2022/10/28 01:50:35;;;;;;;9.45;2.35;;;;;;;;;;8331036;28;20490;-61
2022/10/28 01:54:37;;;;;;;4.87;2.10;;;;;;;;;;8327234;28;20028;-61
2022/10/28 01:58:38;;;;;;;12.88;2.60;;;;;;;;;;8330657;28;20031;-61
2022/10/28 02:02:39;;;;;;;8.65;2.45;;;;;;;;;;8329155;28;20489;-61
2022/10/28 02:06:41;;;;;;;8.95;2.85;;;;;;;;;;8329959;28;20441;-61
2022/10/28 02:10:45;;;;;;;11.80;3.20;;;;;;;;;;8329488;28;20123;-61
2022/10/28 02:14:57;;;;;;;9.15;2.75;;;;;;;;;;8329624;28;20102;-61
2022/10/28 02:19:03;;;;;;;10.60;4.53;;;;;;;;;;8329593;28;20037;-61
2022/10/28 02:23:12;;;;;;;17.75;4.82;;;;;;;;;;8331093;28;20077;-61
2022/10/28 02:27:31;;;;;;;13.65;4.25;;;;;;;;;;8335419;28;20029;-61
2022/10/28 02:31:37;;;;;;;9.57;3.53;;;;;;;;;;8336510;28;20127;-62
2022/10/28 02:35:41;;;;;;;13.27;4.68;;;;;;;;;;8335147;28;20028;-61
2022/10/28 02:39:45;;;;;;;12.88;5.47;;;;;;;;;;8337161;28;20028;-61
2022/10/28 02:43:46;;;;;;;13.70;4.57;;;;;;;;;;8336979;28;20028;-61
2022/10/28 02:47:57;;;;;;;15.35;4.05;;;;;;;;;;8337096;28;20037;-61
2022/10/28 02:51:59;;;;;;;14.60;3.88;;;;;;;;;;8335439;28;20311;-61
2022/10/28 02:56:01;;;;;;;14.57;4.55;;;;;;;;;;8336539;28;20021;-61
2022/10/28 03:00:07;;;;;;;10.75;3.72;;;;;;;;;;8333610;28;20532;-61
2022/10/28 03:04:07;;;;;;;10.02;3.13;;;;;;;;;;8337479;28;20417;-61
2022/10/28 03:08:07;;;;;;;14.53;3.10;;;;;;;;;;8337843;28;20056;-61
2022/10/28 03:12:07;;;;;;;7.78;2.80;;;;;;;;;;8336763;28;20052;-61
2022/10/28 03:16:08;;;;;;;9.20;2.90;;;;;;;;;;8333710;28;20122;-61
2022/10/28 03:20:08;;;;;;;11.05;3.00;;;;;;;;;;8337405;28;20855;-61
2022/10/28 03:24:08;;;;;;;7.13;3.20;;;;;;;;;;8336983;28;20394;-61
2022/10/28 03:28:08;;;;;;;9.38;3.50;;;;;;;;;;8336081;28;20025;-61
2022/10/28 03:32:09;;;;;;;8.68;4.18;;;;;;;;;;8334606;28;20128;-61
2022/10/28 03:36:09;;;;;;;13.45;4.30;;;;;;;;;;8334648;28;20058;-62
2022/10/28 03:40:11;;;;;;;9.77;3.90;;;;;;;;;;8335541;28;20036;-61
2022/10/28 03:44:11;;;;;;;13.68;4.30;;;;;;;;;;8334313;28;20128;-61
2022/10/28 03:48:11;;;;;;;14.20;5.00;;;;;;;;;;8335893;28;20457;-61
2022/10/28 03:52:11;;;;;;;9.65;4.32;;;;;;;;;;8333330;28;20078;-62
2022/10/28 03:56:11;;;;;;;10.60;4.55;;;;;;;;;;8334427;28;20056;-61
2022/10/28 04:00:12;;;;;;;9.23;3.97;;;;;;;;;;8333724;28;20093;-61
2022/10/28 04:04:12;;;;;;;13.50;4.10;;;;;;;;;;8335568;28;20111;-62
2022/10/28 04:08:13;;;;;;;8.93;3.72;;;;;;;;;;8331996;28;20035;-61
2022/10/28 04:12:13;;;;;;;8.77;3.85;;;;;;;;;;8333070;28;20115;-62
2022/10/28 04:16:13;;;;;;;9.52;4.30;;;;;;;;;;8334051;28;20652;-62
2022/10/28 04:20:13;;;;;;;13.65;4.30;;;;;;;;;;8333017;28;20025;-62
2022/10/28 04:24:14;;;;;;;9.65;4.38;;;;;;;;;;8334764;28;20020;-62
2022/10/28 04:28:14;;;;;;;7.13;4.17;;;;;;;;;;8332394;28;20024;-62
2022/10/28 04:32:14;;;;;;;17.92;4.57;;;;;;;;;;8332869;28;20298;-61
2022/10/28 04:36:14;;;;;;;12.07;4.68;;;;;;;;;;8331198;28;20571;-61
2022/10/28 04:40:16;;;;;;;14.77;4.82;;;;;;;;;;8331500;28;20079;-62
2022/10/28 04:44:16;;;;;;;13.97;4.77;;;;;;;;;;8332895;28;20950;-65
2022/10/28 04:48:16;;;;;;;10.38;4.03;;;;;;;;;;8331925;28;20336;-61
2022/10/28 04:52:16;;;;;;;10.50;3.87;;;;;;;;;;8335213;28;20075;-62
2022/10/28 04:56:17;;;;;;;10.40;4.30;;;;;;;;;;8332521;28;21408;-61
2022/10/28 05:00:17;;;;;;;9.25;4.25;;;;;;;;;;8336563;28;20077;-61
2022/10/28 05:04:17;;;;;;;14.95;4.60;;;;;;;;;;8339934;28;20528;-62
2022/10/28 05:08:17;;;;;;;12.75;4.60;;;;;;;;;;8342154;28;20433;-62
2022/10/28 05:12:17;;;;;;;13.32;4.78;;;;;;;;;;8338049;28;20054;-62
2022/10/28 05:16:17;;;;;;;13.48;5.57;;;;;;;;;;8339366;28;20292;-61
2022/10/28 05:20:19;;;;;;;14.25;5.55;;;;;;;;;;8338427;28;20023;-60
2022/10/28 05:24:19;;;;;;;16.17;4.97;;;;;;;;;;8340409;28;20119;-61
2022/10/28 05:28:20;;;;;;;12.57;5.38;;;;;;;;;;8339074;28;20025;-61
2022/10/28 05:32:20;;;;;;;12.27;4.68;;;;;;;;;;8339518;28;20390;-61
2022/10/28 05:36:20;;;;;;;8.32;4.20;;;;;;;;;;8339044;28;20016;-62
2022/10/28 05:40:21;;;;;;;13.60;3.75;;;;;;;;;;8339559;28;20026;-61
2022/10/28 05:44:21;;;;;;;9.73;3.78;;;;;;;;;;8338458;28;20020;-61
2022/10/28 05:48:22;;;;;;;11.40;3.23;;;;;;;;;;8335355;28;20979;-61
2022/10/28 05:52:22;;;;;;;10.48;3.95;;;;;;;;;;8336905;28;20370;-61
2022/10/28 05:56:22;;;;;;;11.40;4.30;;;;;;;;;;8335675;28;20674;-61
2022/10/28 06:00:23;;;;;;;9.03;3.90;;;;;;;;;;8336145;28;20037;-61
2022/10/28 06:04:24;;;;;;;13.02;3.65;;;;;;;;;;8336804;28;20029;-62
2022/10/28 06:08:25;;;;;;;10.40;3.70;;;;;;;;;;8337311;28;20102;-62
2022/10/28 06:12:25;;;;;;;17.92;3.97;;;;;;;;;;8334831;28;20670;-63
2022/10/28 06:16:26;;;;;;;13.88;3.78;;;;;;;;;;8335766;28;20031;-61
2022/10/28 06:20:26;;;;;;;10.85;4.10;;;;;;;;;;8333338;28;20038;-61
2022/10/28 06:24:26;;;;;;;10.05;3.67;;;;;;;;;;8335414;28;20020;-61
2022/10/28 06:28:26;;;;;;;10.68;3.53;;;;;;;;;;8334436;28;20109;-62
2022/10/28 06:32:27;;;;;;;15.45;3.67;;;;;;;;;;8334557;28;20088;-61
2022/10/28 06:36:28;;;;;;;18.20;4.03;;;;;;;;;;8335167;28;20028;-61
2022/10/28 06:40:28;;;;;;;9.95;3.22;;;;;;;;;;8333806;28;20017;-62
2022/10/28 06:44:28;;;;;;;6.55;3.13;;;;;;;;;;8335554;28;20027;-61
2022/10/28 06:48:29;;;;;;;13.40;3.22;;;;;;;;;;8330915;28;20044;-62
2022/10/28 06:52:29;;;;;;;10.40;3.30;;;;;;;;;;8334171;28;20029;-62
2022/10/28 06:56:54;;;;;;;9.80;3.50;;;;;;;;;;8338517;28;20021;-61
2022/10/28 07:00:54;;;;;;;9.20;3.10;;;;;;;;;;8334484;28;20261;-61
2022/10/28 07:04:54;;;;;;;9.88;2.63;;;;;;;;;;8333498;28;20033;-61
2022/10/28 07:08:54;;;;;;;8.60;2.75;;;;;;;;;;8328683;28;20332;-61
2022/10/28 07:12:55;;;;;;;9.43;2.60;;;;;;;;;;8333239;28;20095;-62
2022/10/28 07:16:55;;;;;;;7.60;2.70;;;;;;;;;;8333849;28;20037;-61
2022/10/28 07:20:59;;;;;;;9.32;2.60;;;;;;;;;;8339078;28;20629;-61
2022/10/28 07:24:59;;;;;;;8.20;2.63;;;;;;;;;;8335228;28;20366;-61
2022/10/28 07:28:59;;;;;;;14.05;2.70;;;;;;;;;;8338119;28;20335;-62
2022/10/28 07:33:00;;;;;;;8.38;2.78;;;;;;;;;;8333322;28;20071;-60
2022/10/28 07:37:00;;;;;;;10.90;2.60;;;;;;;;;;8336267;28;20127;-61
2022/10/28 07:41:04;;;;;;;7.95;2.03;;;;;;;;;;8330627;28;20515;-60
2022/10/28 07:45:05;;;;;;;8.57;2.47;;;;;;;;;;8316055;28;20051;-61
2022/10/28 07:49:05;;;;;;;8.57;2.55;;;;;;;;;;8335747;28;20296;-60
2022/10/28 07:53:05;;;;;;;9.33;2.57;;;;;;;;;;8334994;28;20039;-61
2022/10/28 07:57:05;;;;;;;10.90;2.50;;;;;;;;;;8335460;28;20489;-61
2022/10/28 08:01:07;;;;;;;11.27;2.53;;;;;;;;;;8336474;28;20044;-62
2022/10/28 08:05:07;;;;;;;15.88;3.28;;;;;;;;;;8335056;28;20013;-61
2022/10/28 08:09:07;;;;;;;13.85;2.65;;;;;;;;;;8331908;28;20694;-61
2022/10/28 08:13:09;;;;;;;7.85;2.42;;;;;;;;;;8333674;28;20040;-61
2022/10/28 08:17:09;;;;;;;19.63;2.65;;;;;;;;;;8334462;28;20025;-61
2022/10/28 08:21:10;;;;;;;13.48;2.60;;;;;;;;;;8331947;28;20665;-61
2022/10/28 08:25:11;;;;;;;11.13;2.30;;;;;;;;;;8315315;28;20052;-61
2022/10/28 08:29:11;;;;;;;10.65;2.45;;;;;;;;;;8335405;28;20031;-60
2022/10/28 08:33:12;;;;;;;11.43;2.70;;;;;;;;;;8332343;28;20904;-61
2022/10/28 08:37:14;;;;;;;11.55;3.22;;;;;;;;;;8333981;28;20278;-62
2022/10/28 08:41:23;;;;;;;8.40;2.60;;;;;;;;;;8331388;28;20095;-62
2022/10/28 08:45:38;;;;;;;10.27;2.70;;;;;;;;;;8332791;28;20041;-62
2022/10/28 08:49:39;;;;;;;9.25;2.63;;;;;;;;;;8331647;28;20770;-61
2022/10/28 08:54:00;;;;;;;11.77;2.78;;;;;;;;;;8333028;28;20025;-62
2022/10/28 08:58:05;;;;;;;14.93;2.85;;;;;;;;;;8331368;28;20029;-62
2022/10/28 09:02:22;;;;;;;14.40;2.70;;;;;;;;;;8333362;28;20048;-62
2022/10/28 09:06:22;;;;;;;9.82;2.38;;;;;;;;;;8332336;28;20060;-62
2022/10/28 09:10:32;;;;;;;12.10;3.03;;;;;;;;;;8330992;28;20464;-62
2022/10/28 09:14:51;;;;;;;11.20;2.50;;;;;;;;;;8332591;28;20669;-62
2022/10/28 09:18:53;;;;;;;14.30;2.60;;;;;;;;;;8332273;28;20037;-62
2022/10/28 09:22:57;;;;;;;10.05;3.00;;;;;;;;;;8332736;28;20033;-62
2022/10/28 09:27:03;;;;;;;15.30;2.55;;;;;;;;;;8333411;28;20793;-63
2022/10/28 09:31:09;;;;;;;11.05;2.55;;;;;;;;;;8332320;28;20053;-62
2022/10/28 09:35:12;;;;;;;11.07;2.47;;;;;;;;;;8332258;28;20025;-62
2022/10/28 09:39:19;;;;;;;15.82;2.50;;;;;;;;;;8333750;28;20021;-62
2022/10/28 09:43:28;;;;;;;17.70;2.65;;;;;;;;;;8333206;28;20028;-63
2022/10/28 09:47:35;;;;;;;14.02;3.20;;;;;;;;;;8334775;28;20047;-62
2022/10/28 09:51:54;;;;;;;15.85;2.78;;;;;;;;;;8340529;28;20071;-62
2022/10/28 09:55:55;;;;;;;11.20;2.60;;;;;;;;;;8334122;28;20553;-62
2022/10/28 09:59:56;;;;;;;9.25;2.80;;;;;;;;;;8339944;28;20167;-62
2022/10/28 10:03:56;;;;;;;11.02;2.70;;;;;;;;;;8335115;28;20068;-62
2022/10/28 10:07:58;;;;;;;16.63;2.60;;;;;;;;;;8331142;28;20033;-61
2022/10/28 10:12:03;;;;;;;11.55;2.58;;;;;;;;;;8328337;28;20025;-61
2022/10/28 10:16:24;;;;;;;18.10;2.95;;;;;;;;;;8330725;28;20362;-62
2022/10/28 10:20:24;;;;;;;10.75;2.42;;;;;;;;;;8328391;28;20033;-62
2022/10/28 10:24:28;;;;;;;14.27;2.87;;;;;;;;;;8328932;28;20021;-62
2022/10/28 10:28:28;;;;;;;;;;;;;;;;;;8329186;28;20325;-64
2022/10/28 10:32:31;;;;;;;11.98;2.40;;;;;;;;;;8328614;28;19920;-62
2022/10/28 10:36:33;;;;;;;17.23;2.78;;;;;;;;;;8329638;28;20500;-62
2022/10/28 10:40:47;;;;;;;16.52;2.75;;;;;;;;;;8329071;28;20028;-62
2022/10/28 10:44:55;;;;;;;9.85;2.20;;;;;;;;;;8331065;28;20048;-63
2022/10/28 10:49:14;;;;;;;10.20;2.60;;;;;;;;;;8329549;28;20394;-62
2022/10/28 10:53:33;;;;;;;11.00;2.70;;;;;;;;;;8328316;28;20029;-62
2022/10/28 10:57:33;;;;;;;14.23;2.42;;;;;;;;;;8327302;28;20498;-62
2022/10/28 11:01:35;;;;;;;11.98;2.30;;;;;;;;;;8327976;28;20049;-62
2022/10/28 11:05:35;;;;;;;12.05;2.70;;;;;;;;;;8329485;28;20028;-62
2022/10/28 11:09:38;;;;;;;19.00;2.70;;;;;;;;;;8329840;28;20039;-62
2022/10/28 11:13:39;;;;;;;13.07;2.63;;;;;;;;;;8326935;28;20573;-62
2022/10/28 11:17:52;;;;;;;11.43;2.78;;;;;;;;;;8327944;28;20349;-62
2022/10/28 11:22:11;;;;;;;14.90;3.17;;;;;;;;;;8328165;28;20045;-62
2022/10/28 11:26:13;;;;;;;16.42;2.28;;;;;;;;;;8327990;28;20501;-62
2022/10/28 11:30:15;;;;;;;8.57;2.10;;;;;;;;;;8330047;28;20134;-62
2022/10/28 11:34:30;;;;;;;8.33;2.10;;;;;;;;;;8328045;28;20060;-62
2022/10/28 11:38:31;;;;;;;11.20;2.22;;;;;;;;;;8328284;28;20343;-62
2022/10/28 11:42:46;;;;;;;13.38;2.28;;;;;;;;;;8327397;28;20553;-63
2022/10/28 11:46:49;;;;;;;13.23;2.47;;;;;;;;;;8328158;28;20559;-62
2022/10/28 11:50:50;;;;;;;10.40;2.72;;;;;;;;;;8328802;28;20483;-62
2022/10/28 11:54:59;;;;;;;13.20;2.60;;;;;;;;;;8327424;28;20210;-62
2022/10/28 11:59:19;;;;;;;7.05;2.40;;;;;;;;;;8326803;28;20123;-62
2022/10/28 12:03:32;;;;;;;9.10;2.33;;;;;;;;;;8325947;28;20037;-62
2022/10/28 12:07:38;;;;;;;9.17;2.77;;;;;;;;;;8327075;28;20052;-62
2022/10/28 12:11:48;;;;;;;17.48;2.55;;;;;;;;;;8325756;28;20297;-62
2022/10/28 12:16:08;;;;;;;14.65;2.88;;;;;;;;;;8325947;28;20025;-62
2022/10/28 12:20:31;;;;;;;13.00;2.97;;;;;;;;;;8325881;28;20395;-62
2022/10/28 12:24:34;;;;;;;11.90;2.30;;;;;;;;;;8326846;28;20087;-63
2022/10/28 12:28:43;;;;;;;8.37;2.63;;;;;;;;;;8326640;28;20584;-61
2022/10/28 12:32:44;;;;;;;14.95;2.60;;;;;;;;;;8325556;28;20285;-62
2022/10/28 12:36:51;;;;;;;20.52;2.92;;;;;;;;;;8325933;28;20083;-62
2022/10/28 12:41:03;;;;;;;10.75;2.58;;;;;;;;;;8326282;28;20029;-61
2022/10/28 12:45:06;;;;;;;10.40;2.65;;;;;;;;;;8327455;28;20764;-62
2022/10/28 12:49:13;;;;;;;16.77;3.10;;;;;;;;;;8325021;28;20429;-62
2022/10/28 12:53:32;;;;;;;11.95;2.50;;;;;;;;;;8325538;28;20025;-62
2022/10/28 12:57:33;;;;;;;14.52;3.58;;;;;;;;;;8327475;28;20281;-62
2022/10/28 13:01:34;;;;;;;11.95;2.60;;;;;;;;;;8325460;28;20588;-62
2022/10/28 13:05:40;;;;;;;9.90;2.80;;;;;;;;;;8326255;28;20539;-62
2022/10/28 13:09:40;;;;;;;16.00;2.85;;;;;;;;;;8326670;28;20059;-63
2022/10/28 13:13:47;;;;;;;15.60;3.05;;;;;;;;;;8325495;28;20033;-61
2022/10/28 13:18:06;;;;;;;13.23;2.80;;;;;;;;;;8324660;28;20125;-62
2022/10/28 13:22:25;;;;;;;10.27;2.40;;;;;;;;;;8329010;28;20617;-62
2022/10/28 13:26:27;;;;;;;12.98;2.70;;;;;;;;;;8331807;28;20029;-62
2022/10/28 13:30:30;;;;;;;13.63;2.33;;;;;;;;;;8326761;28;20543;-62
2022/10/28 13:34:32;;;;;;;13.18;3.13;;;;;;;;;;8328653;28;20048;-62
2022/10/28 13:38:33;;;;;;;18.92;2.75;;;;;;;;;;8328157;28;20025;-61
2022/10/28 13:42:59;;;;;;;10.05;2.50;;;;;;;;;;8328891;28;20305;-62
2022/10/28 13:47:00;;;;;;;13.27;2.90;;;;;;;;;;8324976;28;20407;-61
2022/10/28 13:51:09;;;;;;;13.02;3.10;;;;;;;;;;8328919;28;20143;-62
2022/10/28 13:55:26;;;;;;;12.40;2.75;;;;;;;;;;8328747;28;20477;-62
2022/10/28 13:59:28;;;;;;;9.55;2.53;;;;;;;;;;8329242;28;20029;-62
2022/10/28 14:03:29;;;;;;;14.35;3.10;;;;;;;;;;8327574;28;20037;-62
2022/10/28 14:07:30;;;;;;;10.95;2.83;;;;;;;;;;8327471;28;20035;-61
2022/10/28 14:11:31;;;;;;;8.65;2.60;;;;;;;;;;8327589;28;20024;-62
2022/10/28 14:15:35;;;;;;;15.65;2.80;;;;;;;;;;8327019;28;20037;-62
2022/10/28 14:19:36;;;;;;;9.52;2.45;;;;;;;;;;8326982;28;20536;-62
2022/10/28 14:23:48;;;;;;;11.43;2.88;;;;;;;;;;8322164;28;20094;-62
2022/10/28 14:27:49;;;;;;;12.43;2.83;;;;;;;;;;8326940;28;20148;-62
2022/10/28 14:31:49;;;;;;;11.27;3.08;;;;;;;;;;8324856;28;20416;-62
2022/10/28 14:35:51;;;;;;;12.98;2.63;;;;;;;;;;8327342;28;20538;-61
2022/10/28 14:40:11;;;;;;;12.15;2.60;;;;;;;;;;8327946;28;20024;-62
2022/10/28 14:44:30;;;;;;;10.75;2.30;;;;;;;;;;8326493;28;20099;-62
2022/10/28 14:48:30;;;;;;;10.68;3.10;;;;;;;;;;8327162;28;20136;-62
2022/10/28 14:52:33;;;;;;;9.55;2.50;;;;;;;;;;8326745;28;20584;-62
2022/10/28 14:56:33;;;;;;;9.23;2.40;;;;;;;;;;8325633;28;20025;-62
2022/10/28 15:00:36;;;;;;;12.52;2.70;;;;;;;;;;8326155;28;20044;-62
2022/10/28 15:04:38;;;;;;;16.23;2.70;;;;;;;;;;8327523;28;20394;-61
2022/10/28 15:08:38;;;;;;;15.00;3.05;;;;;;;;;;8327848;28;20024;-62
2022/10/28 15:12:38;;;;;;;9.77;2.45;;;;;;;;;;8323471;28;20025;-61
2022/10/28 15:16:44;;;;;;;12.73;2.78;;;;;;;;;;8326084;28;20066;-61
2022/10/28 15:20:44;;;;;;;10.98;2.88;;;;;;;;;;8325662;28;20029;-61
2022/10/28 15:25:11;;;;;;;8.50;2.70;;;;;;;;;;8320297;28;20743;-62
2022/10/28 15:29:11;;;;;;;17.33;4.18;;;;;;;;;;8321302;28;20037;-61
2022/10/28 15:33:38;;;;;;;18.23;4.95;;;;;;;;;;8324111;28;20063;-62
2022/10/28 15:37:38;;;;;;;13.73;3.13;;;;;;;;;;8319389;28;20031;-61
2022/10/28 15:41:40;;;;;;;14.18;2.97;;;;;;;;;;8325212;28;20020;-61
2022/10/28 15:45:40;;;;;;;18.33;3.10;;;;;;;;;;8325846;28;20044;-61
2022/10/28 15:49:41;;;;;;;13.32;3.13;;;;;;;;;;8324673;28;20183;-61
2022/10/28 15:53:44;;;;;;;12.75;3.08;;;;;;;;;;8325514;28;20669;-62
2022/10/28 15:57:46;;;;;;;11.75;3.35;;;;;;;;;;8326033;28;20033;-62
2022/10/28 16:01:46;;;;;;;11.63;3.28;;;;;;;;;;8323283;28;20757;-61
2022/10/28 16:05:47;;;;;;;9.02;2.30;;;;;;;;;;8325169;28;20078;-61
2022/10/28 16:09:47;;;;;;;13.90;2.92;;;;;;;;;;8323047;28;20559;-61
2022/10/28 16:13:48;;;;;;;12.55;2.65;;;;;;;;;;8309063;28;20082;-61
2022/10/28 16:17:48;;;;;;;14.35;3.42;;;;;;;;;;8321755;28;20159;-61
2022/10/28 16:21:48;;;;;;;16.13;3.00;;;;;;;;;;8323367;28;20036;-61
2022/10/28 16:25:49;;;;;;;17.58;2.80;;;;;;;;;;8323677;28;20374;-62
2022/10/28 16:29:49;;;;;;;12.07;3.10;;;;;;;;;;8323791;28;20422;-62
2022/10/28 16:33:50;;;;;;;8.20;2.43;;;;;;;;;;8322745;28;20043;-61
2022/10/28 16:37:51;;;;;;;17.85;2.92;;;;;;;;;;8324802;28;20020;-61
2022/10/28 16:41:53;;;;;;;13.98;3.10;;;;;;;;;;8313155;28;20025;-63
2022/10/28 16:45:54;;;;;;;11.95;2.72;;;;;;;;;;8313911;28;20043;-62
2022/10/28 16:49:54;;;;;;;11.70;2.78;;;;;;;;;;8324740;28;20024;-61
2022/10/28 16:53:54;;;;;;;13.57;3.33;;;;;;;;;;8321622;28;20540;-61
2022/10/28 16:57:54;;;;;;;11.38;2.80;;;;;;;;;;8335870;28;20029;-61
2022/10/28 17:01:57;;;;;;;9.10;3.08;;;;;;;;;;8334513;28;20037;-62
2022/10/28 17:05:57;;;;;;;10.00;2.73;;;;;;;;;;8335674;28;20474;-61
2022/10/28 17:09:57;;;;;;;12.27;3.00;;;;;;;;;;8337512;28;20325;-61
2022/10/28 17:13:58;;;;;;;16.60;3.10;;;;;;;;;;8338400;28;20020;-61
2022/10/28 17:17:58;;;;;;;15.02;3.00;;;;;;;;;;8336100;28;20036;-61
2022/10/28 17:21:58;;;;;;;11.13;2.72;;;;;;;;;;8337576;28;20028;-61
2022/10/28 17:25:59;;;;;;;13.95;3.00;;;;;;;;;;8336153;28;20578;-61
2022/10/28 17:29:59;;;;;;;16.48;3.17;;;;;;;;;;8339233;28;20800;-61
2022/10/28 17:34:00;;;;;;;11.73;2.92;;;;;;;;;;8336586;28;20043;-61
2022/10/28 17:38:00;;;;;;;13.48;2.90;;;;;;;;;;8338609;28;20012;-61
2022/10/28 17:42:00;;;;;;;11.95;2.72;;;;;;;;;;8337105;28;20450;-61
2022/10/28 17:46:04;;;;;;;14.75;3.20;;;;;;;;;;8337786;28;20271;-61
2022/10/28 17:50:05;;;;;;;10.20;2.42;;;;;;;;;;8335710;28;20036;-61
2022/10/28 17:54:05;;;;;;;20.95;3.38;;;;;;;;;;8337715;28;20029;-61
2022/10/28 17:58:05;;;;;;;16.58;3.00;;;;;;;;;;8336790;28;20021;-61
2022/10/28 18:02:05;;;;;;;15.02;3.40;;;;;;;;;;8334924;28;20294;-62
2022/10/28 18:06:10;;;;;;;12.80;3.13;;;;;;;;;;8335789;28;20050;-61
2022/10/28 18:10:10;;;;;;;11.00;3.00;;;;;;;;;;8330222;28;20032;-61
2022/10/28 18:14:10;;;;;;;11.63;2.65;;;;;;;;;;8330449;28;20021;-62
2022/10/28 18:18:10;;;;;;;9.07;3.15;;;;;;;;;;8329357;28;20063;-62
2022/10/28 18:22:10;;;;;;;12.18;3.15;;;;;;;;;;8329458;28;20024;-61
2022/10/28 18:26:12;;;;;;;17.15;3.25;;;;;;;;;;8330104;28;20020;-61
2022/10/28 18:30:13;;;;;;;14.93;3.35;;;;;;;;;;8330901;28;20082;-61
2022/10/28 18:34:13;;;;;;;12.18;3.05;;;;;;;;;;8330541;28;20021;-61
2022/10/28 18:38:13;;;;;;;19.83;3.90;;;;;;;;;;8331415;28;20013;-61
2022/10/28 18:42:13;;;;;;;13.88;3.38;;;;;;;;;;8330324;28;20573;-61
2022/10/28 18:46:13;;;;;;;11.00;3.13;;;;;;;;;;8329751;28;20111;-61
2022/10/28 18:50:14;;;;;;;19.35;3.40;;;;;;;;;;8329301;28;20512;-61
2022/10/28 18:54:14;;;;;;;14.25;3.50;;;;;;;;;;8328764;28;20073;-61
2022/10/28 18:58:14;;;;;;;14.48;3.40;;;;;;;;;;8329784;28;20021;-61
2022/10/28 19:02:14;;;;;;;23.70;4.15;;;;;;;;;;8330547;28;20042;-61
2022/10/28 19:06:15;;;;;;;20.77;3.70;;;;;;;;;;8328643;28;20032;-61
2022/10/28 19:10:15;;;;;;;15.45;3.50;;;;;;;;;;8329905;28;20123;-61
2022/10/28 19:14:15;;;;;;;14.57;3.67;;;;;;;;;;8329477;28;20546;-61
2022/10/28 19:18:16;;;;;;;13.00;3.30;;;;;;;;;;8328411;28;20033;-61
2022/10/28 19:22:16;;;;;;;14.40;3.70;;;;;;;;;;8329106;28;20031;-61
2022/10/28 19:26:17;;;;;;;14.35;3.10;;;;;;;;;;8328008;28;20056;-61
2022/10/28 19:30:17;;;;;;;15.32;3.38;;;;;;;;;;8329156;28;20191;-61
2022/10/28 19:34:17;;;;;;;13.70;3.45;;;;;;;;;;8328398;28;20028;-61
2022/10/28 19:38:18;;;;;;;16.67;3.25;;;;;;;;;;8328890;28;20118;-61
2022/10/28 19:42:18;;;;;;;15.25;3.42;;;;;;;;;;8326762;28;20029;-61
2022/10/28 19:46:19;;;;;;;15.38;3.28;;;;;;;;;;8329243;28;20041;-61
2022/10/28 19:50:19;;;;;;;19.15;3.90;;;;;;;;;;8327539;28;20032;-61
2022/10/28 19:54:19;;;;;;;10.77;3.30;;;;;;;;;;8327926;28;20035;-61
2022/10/28 19:58:19;;;;;;;14.77;3.33;;;;;;;;;;8327243;28;20505;-61
2022/10/28 20:02:19;;;;;;;16.48;3.65;;;;;;;;;;8327382;28;20037;-61
2022/10/28 20:06:21;;;;;;;17.98;4.10;;;;;;;;;;8328778;28;20028;-61
2022/10/28 20:10:21;;;;;;;13.80;3.28;;;;;;;;;;8327135;28;20501;-61
2022/10/28 20:14:21;;;;;;;13.27;3.40;;;;;;;;;;8326123;28;20021;-61
2022/10/28 20:18:21;;;;;;;20.08;3.55;;;;;;;;;;8308458;28;20028;-61
2022/10/28 20:22:22;;;;;;;12.38;3.17;;;;;;;;;;8328057;28;20147;-61
2022/10/28 20:26:23;;;;;;;13.27;3.45;;;;;;;;;;8328622;28;20033;-61
2022/10/28 20:30:24;;;;;;;15.60;3.47;;;;;;;;;;8325994;28;20422;-62
2022/10/28 20:34:24;;;;;;;13.07;3.92;;;;;;;;;;8327134;28;20545;-61
2022/10/28 20:38:24;;;;;;;13.57;3.50;;;;;;;;;;8325519;28;20493;-61
2022/10/28 20:42:24;;;;;;;15.18;3.60;;;;;;;;;;8326366;28;20028;-61
2022/10/28 20:46:25;;;;;;;16.23;3.90;;;;;;;;;;8326828;28;20454;-60
2022/10/28 20:50:25;;;;;;;11.65;3.30;;;;;;;;;;8326549;28;20448;-61
2022/10/28 20:54:25;;;;;;;12.40;3.20;;;;;;;;;;8328145;28;20031;-61
2022/10/28 20:58:27;;;;;;;17.70;3.70;;;;;;;;;;8326987;28;20033;-61
2022/10/28 21:02:27;;;;;;;11.32;3.30;;;;;;;;;;8325941;28;20033;-61
2022/10/28 21:06:28;;;;;;;9.52;3.28;;;;;;;;;;8325851;28;20029;-60
2022/10/28 21:10:28;;;;;;;18.45;3.47;;;;;;;;;;8327000;28;20033;-61
2022/10/28 21:14:29;;;;;;;16.33;3.83;;;;;;;;;;8328029;28;20529;-61
2022/10/28 21:18:29;;;;;;;14.68;4.30;;;;;;;;;;8326902;28;20725;-60
2022/10/28 21:22:29;;;;;;;12.57;3.22;;;;;;;;;;8326022;28;20029;-61
2022/10/28 21:26:30;;;;;;;12.57;3.15;;;;;;;;;;8325788;28;20107;-61
2022/10/28 21:30:30;;;;;;;12.45;3.70;;;;;;;;;;8325304;28;20037;-61
2022/10/28 21:34:30;;;;;;;11.20;3.30;;;;;;;;;;8325498;28;20264;-61
2022/10/28 21:38:30;;;;;;;12.48;3.33;;;;;;;;;;8325635;28;20251;-61
2022/10/28 21:42:30;;;;;;;11.03;3.00;;;;;;;;;;8326402;28;20591;-61
2022/10/28 21:46:31;;;;;;;13.60;3.88;;;;;;;;;;8314372;28;20549;-61
2022/10/28 21:50:31;;;;;;;10.35;3.25;;;;;;;;;;8331326;28;20660;-60
2022/10/28 21:54:32;;;;;;;18.40;3.90;;;;;;;;;;8330375;28;20066;-60
2022/10/28 21:58:36;;;;;;;15.68;3.05;;;;;;;;;;8332712;28;20021;-60
2022/10/28 22:02:36;;;;;;;14.35;3.58;;;;;;;;;;8330438;28;20044;-60
2022/10/28 22:06:37;;;;;;;12.15;3.40;;;;;;;;;;8329726;28;20029;-60
2022/10/28 22:10:37;;;;;;;12.43;3.50;;;;;;;;;;8332331;28;20135;-60
2022/10/28 22:14:37;;;;;;;10.05;3.53;;;;;;;;;;8330738;28;20024;-60
2022/10/28 22:18:38;;;;;;;8.82;3.45;;;;;;;;;;8331604;28;20063;-60
2022/10/28 22:22:38;;;;;;;11.00;3.50;;;;;;;;;;8328686;28;20071;-60
2022/10/28 22:26:38;;;;;;;9.40;3.60;;;;;;;;;;8331994;28;20029;-60
2022/10/28 22:30:38;;;;;;;12.77;3.97;;;;;;;;;;8330442;28;20254;-60
2022/10/28 22:34:38;;;;;;;14.93;4.47;;;;;;;;;;8330729;28;20029;-60
2022/10/28 22:38:39;;;;;;;10.65;3.67;;;;;;;;;;8330727;28;20345;-60
2022/10/28 22:42:39;;;;;;;9.80;4.10;;;;;;;;;;8330604;28;20512;-60
2022/10/28 22:46:41;;;;;;;10.18;3.63;;;;;;;;;;8329005;28;20080;-60
2022/10/28 22:50:41;;;;;;;10.38;3.72;;;;;;;;;;8329115;28;20912;-63
2022/10/28 22:54:41;;;;;;;13.02;3.72;;;;;;;;;;8330081;28;20155;-61
2022/10/28 22:58:42;;;;;;;13.13;3.88;;;;;;;;;;8328785;28;20360;-61
2022/10/28 23:02:42;;;;;;;11.65;3.72;;;;;;;;;;8326165;28;20537;-61
2022/10/28 23:06:42;;;;;;;9.63;3.88;;;;;;;;;;8325617;28;20113;-61
2022/10/28 23:10:42;;;;;;;13.73;4.10;;;;;;;;;;8324953;28;20075;-61
2022/10/28 23:14:42;;;;;;;11.23;3.78;;;;;;;;;;8326129;28;20390;-61
2022/10/28 23:18:43;;;;;;;13.45;3.75;;;;;;;;;;8323389;28;20587;-61
2022/10/28 23:22:44;;;;;;;9.18;4.00;;;;;;;;;;8325000;28;20028;-61
2022/10/28 23:26:44;;;;;;;12.10;4.03;;;;;;;;;;8324581;28;20033;-61
2022/10/28 23:30:44;;;;;;;15.20;4.50;;;;;;;;;;8325364;28;20032;-62
2022/10/28 23:34:44;;;;;;;10.93;4.50;;;;;;;;;;8323760;28;20017;-61
2022/10/28 23:38:44;;;;;;;15.70;4.65;;;;;;;;;;8325915;28;20025;-61
2022/10/28 23:42:45;;;;;;;11.77;4.38;;;;;;;;;;8323200;28;20036;-61
2022/10/28 23:46:45;;;;;;;16.02;4.35;;;;;;;;;;8323421;28;20309;-61
2022/10/28 23:50:45;;;;;;;10.98;3.60;;;;;;;;;;8322752;28;20048;-61
2022/10/28 23:54:45;;;;;;;10.70;4.47;;;;;;;;;;8324548;28;20122;-61
2022/10/28 23:58:45;;;;;;;13.48;3.97;;;;;;;;;;8324266;28;20024;-61
